sensor_id;sensor_type;location;lat;lon;timestamp;P1;durP1;ratioP1;P2;durP2;ratioP2
64029;SDS011;50277;52.064;4.492;2023-06-14T00:00:45;6.80;;;3.42;;
64029;SDS011;50277;52.064;4.492;2023-06-14T00:03:11;5.50;;;3.30;;
64029;SDS011;50277;52.064;4.492;2023-06-14T00:05:37;5.70;;;3.80;;
64029;SDS011;50277;52.064;4.492;2023-06-14T00:08:08;11.15;;;3.97;;
64029;SDS011;50277;52.064;4.492;2023-06-14T00:10:36;9.30;;;3.72;;
64029;SDS011;50277;52.064;4.492;2023-06-14T00:13:05;9.23;;;3.55;;
64029;SDS011;50277;52.064;4.492;2023-06-14T00:15:32;7.50;;;3.75;;
64029;SDS011;50277;52.064;4.492;2023-06-14T00:17:58;7.38;;;4.00;;
64029;SDS011;50277;52.064;4.492;2023-06-14T00:20:26;6.35;;;3.70;;
64029;SDS011;50277;52.064;4.492;2023-06-14T00:22:52;6.80;;;3.65;;
64029;SDS011;50277;52.064;4.492;2023-06-14T00:25:19;9.40;;;3.42;;
64029;SDS011;50277;52.064;4.492;2023-06-14T00:27:44;7.15;;;3.10;;
64029;SDS011;50277;52.064;4.492;2023-06-14T00:30:10;5.72;;;3.67;;
64029;SDS011;50277;52.064;4.492;2023-06-14T00:32:36;10.00;;;3.60;;
64029;SDS011;50277;52.064;4.492;2023-06-14T00:35:01;7.90;;;3.60;;
64029;SDS011;50277;52.064;4.492;2023-06-14T00:37:26;10.07;;;3.45;;
64029;SDS011;50277;52.064;4.492;2023-06-14T00:39:52;15.05;;;3.90;;
64029;SDS011;50277;52.064;4.492;2023-06-14T00:42:27;9.65;;;3.60;;
64029;SDS011;50277;52.064;4.492;2023-06-14T00:44:53;5.30;;;3.25;;
64029;SDS011;50277;52.064;4.492;2023-06-14T00:47:18;7.05;;;3.42;;
64029;SDS011;50277;52.064;4.492;2023-06-14T00:49:48;13.15;;;3.53;;
64029;SDS011;50277;52.064;4.492;2023-06-14T00:52:16;8.13;;;3.40;;
64029;SDS011;50277;52.064;4.492;2023-06-14T00:54:41;6.32;;;3.63;;
64029;SDS011;50277;52.064;4.492;2023-06-14T00:57:07;5.75;;;3.33;;
64029;SDS011;50277;52.064;4.492;2023-06-14T00:59:33;7.28;;;3.53;;
64029;SDS011;50277;52.064;4.492;2023-06-14T01:02:00;8.68;;;2.95;;
64029;SDS011;50277;52.064;4.492;2023-06-14T01:04:25;6.18;;;2.92;;
64029;SDS011;50277;52.064;4.492;2023-06-14T01:15:45;3.80;;;2.90;;
64029;SDS011;50277;52.064;4.492;2023-06-14T01:18:11;4.78;;;3.40;;
64029;SDS011;50277;52.064;4.492;2023-06-14T01:20:42;10.80;;;3.67;;
64029;SDS011;50277;52.064;4.492;2023-06-14T01:23:09;14.10;;;3.23;;
64029;SDS011;50277;52.064;4.492;2023-06-14T01:25:37;8.43;;;3.30;;
64029;SDS011;50277;52.064;4.492;2023-06-14T01:28:04;9.27;;;3.47;;
64029;SDS011;50277;52.064;4.492;2023-06-14T01:30:35;7.07;;;3.17;;
64029;SDS011;50277;52.064;4.492;2023-06-14T01:33:02;4.25;;;3.10;;
64029;SDS011;50277;52.064;4.492;2023-06-14T01:35:28;8.10;;;3.33;;
64029;SDS011;50277;52.064;4.492;2023-06-14T01:37:53;11.13;;;3.13;;
64029;SDS011;50277;52.064;4.492;2023-06-14T01:40:19;9.50;;;3.50;;
64029;SDS011;50277;52.064;4.492;2023-06-14T01:42:46;10.30;;;3.30;;
64029;SDS011;50277;52.064;4.492;2023-06-14T01:45:13;4.90;;;3.08;;
64029;SDS011;50277;52.064;4.492;2023-06-14T01:47:39;4.25;;;3.72;;
64029;SDS011;50277;52.064;4.492;2023-06-14T01:50:05;5.35;;;3.17;;
64029;SDS011;50277;52.064;4.492;2023-06-14T01:52:30;6.47;;;3.63;;
64029;SDS011;50277;52.064;4.492;2023-06-14T01:54:56;10.93;;;3.20;;
64029;SDS011;50277;52.064;4.492;2023-06-14T01:57:22;6.65;;;3.60;;
64029;SDS011;50277;52.064;4.492;2023-06-14T01:59:49;10.68;;;3.38;;
64029;SDS011;50277;52.064;4.492;2023-06-14T02:02:14;9.20;;;3.78;;
64029;SDS011;50277;52.064;4.492;2023-06-14T02:04:40;6.03;;;3.20;;
64029;SDS011;50277;52.064;4.492;2023-06-14T02:07:06;6.88;;;3.70;;
64029;SDS011;50277;52.064;4.492;2023-06-14T02:09:31;11.55;;;3.25;;
64029;SDS011;50277;52.064;4.492;2023-06-14T02:11:57;6.63;;;3.70;;
64029;SDS011;50277;52.064;4.492;2023-06-14T02:14:23;7.65;;;3.47;;
64029;SDS011;50277;52.064;4.492;2023-06-14T02:16:48;7.78;;;3.75;;
64029;SDS011;50277;52.064;4.492;2023-06-14T02:19:15;7.80;;;3.20;;
64029;SDS011;50277;52.064;4.492;2023-06-14T02:21:43;7.90;;;3.35;;
64029;SDS011;50277;52.064;4.492;2023-06-14T02:24:09;6.32;;;3.22;;
64029;SDS011;50277;52.064;4.492;2023-06-14T02:26:35;4.68;;;3.47;;
64029;SDS011;50277;52.064;4.492;2023-06-14T02:29:00;11.25;;;3.55;;
64029;SDS011;50277;52.064;4.492;2023-06-14T02:31:26;13.55;;;3.30;;
64029;SDS011;50277;52.064;4.492;2023-06-14T02:33:52;7.80;;;3.50;;
64029;SDS011;50277;52.064;4.492;2023-06-14T02:36:17;9.05;;;3.95;;
64029;SDS011;50277;52.064;4.492;2023-06-14T02:38:43;7.20;;;3.05;;
64029;SDS011;50277;52.064;4.492;2023-06-14T02:41:08;7.75;;;3.53;;
64029;SDS011;50277;52.064;4.492;2023-06-14T02:43:33;8.32;;;4.05;;
64029;SDS011;50277;52.064;4.492;2023-06-14T02:45:59;6.57;;;3.70;;
64029;SDS011;50277;52.064;4.492;2023-06-14T02:48:24;6.38;;;3.50;;
64029;SDS011;50277;52.064;4.492;2023-06-14T02:50:49;11.63;;;3.53;;
64029;SDS011;50277;52.064;4.492;2023-06-14T02:53:16;5.28;;;3.30;;
64029;SDS011;50277;52.064;4.492;2023-06-14T02:55:42;8.32;;;3.78;;
64029;SDS011;50277;52.064;4.492;2023-06-14T02:58:07;8.90;;;3.50;;
64029;SDS011;50277;52.064;4.492;2023-06-14T03:00:32;8.20;;;3.88;;
64029;SDS011;50277;52.064;4.492;2023-06-14T03:03:00;8.00;;;3.67;;
64029;SDS011;50277;52.064;4.492;2023-06-14T03:05:26;5.47;;;3.72;;
64029;SDS011;50277;52.064;4.492;2023-06-14T03:07:53;4.88;;;3.53;;
64029;SDS011;50277;52.064;4.492;2023-06-14T03:10:18;5.80;;;3.45;;
64029;SDS011;50277;52.064;4.492;2023-06-14T03:12:44;8.50;;;3.83;;
64029;SDS011;50277;52.064;4.492;2023-06-14T03:15:10;9.30;;;3.70;;
64029;SDS011;50277;52.064;4.492;2023-06-14T03:17:38;5.60;;;3.33;;
64029;SDS011;50277;52.064;4.492;2023-06-14T03:20:04;4.88;;;3.60;;
64029;SDS011;50277;52.064;4.492;2023-06-14T03:22:30;7.10;;;3.33;;
64029;SDS011;50277;52.064;4.492;2023-06-14T03:24:57;13.25;;;3.85;;
64029;SDS011;50277;52.064;4.492;2023-06-14T03:27:24;8.77;;;3.50;;
64029;SDS011;50277;52.064;4.492;2023-06-14T03:29:50;5.85;;;3.45;;
64029;SDS011;50277;52.064;4.492;2023-06-14T03:32:15;9.35;;;3.42;;
64029;SDS011;50277;52.064;4.492;2023-06-14T03:34:40;8.80;;;3.45;;
64029;SDS011;50277;52.064;4.492;2023-06-14T03:37:06;9.57;;;3.75;;
64029;SDS011;50277;52.064;4.492;2023-06-14T03:39:31;4.93;;;3.72;;
64029;SDS011;50277;52.064;4.492;2023-06-14T03:41:56;7.28;;;3.53;;
64029;SDS011;50277;52.064;4.492;2023-06-14T03:44:22;9.05;;;3.13;;
64029;SDS011;50277;52.064;4.492;2023-06-14T03:46:47;9.20;;;3.75;;
64029;SDS011;50277;52.064;4.492;2023-06-14T03:49:13;9.13;;;3.25;;
64029;SDS011;50277;52.064;4.492;2023-06-14T03:51:38;3.50;;;3.00;;
64029;SDS011;50277;52.064;4.492;2023-06-14T03:54:04;9.00;;;3.47;;
64029;SDS011;50277;52.064;4.492;2023-06-14T03:56:30;7.88;;;3.08;;
64029;SDS011;50277;52.064;4.492;2023-06-14T03:58:55;9.07;;;3.78;;
64029;SDS011;50277;52.064;4.492;2023-06-14T04:01:21;9.52;;;3.28;;
64029;SDS011;50277;52.064;4.492;2023-06-14T04:03:54;7.40;;;3.15;;
64029;SDS011;50277;52.064;4.492;2023-06-14T04:06:19;12.35;;;3.63;;
64029;SDS011;50277;52.064;4.492;2023-06-14T04:08:45;8.23;;;3.20;;
64029;SDS011;50277;52.064;4.492;2023-06-14T04:11:10;4.32;;;3.05;;
64029;SDS011;50277;52.064;4.492;2023-06-14T04:13:36;9.93;;;3.30;;
64029;SDS011;50277;52.064;4.492;2023-06-14T04:16:02;15.40;;;3.97;;
64029;SDS011;50277;52.064;4.492;2023-06-14T04:18:28;5.75;;;2.92;;
64029;SDS011;50277;52.064;4.492;2023-06-14T04:20:53;3.40;;;3.10;;
64029;SDS011;50277;52.064;4.492;2023-06-14T04:23:19;9.82;;;3.35;;
64029;SDS011;50277;52.064;4.492;2023-06-14T04:25:44;16.33;;;3.53;;
64029;SDS011;50277;52.064;4.492;2023-06-14T04:28:10;18.67;;;3.13;;
64029;SDS011;50277;52.064;4.492;2023-06-14T04:30:36;8.88;;;3.35;;
64029;SDS011;50277;52.064;4.492;2023-06-14T04:33:04;9.90;;;3.00;;
64029;SDS011;50277;52.064;4.492;2023-06-14T04:35:30;10.77;;;3.92;;
64029;SDS011;50277;52.064;4.492;2023-06-14T04:37:57;7.72;;;3.35;;
64029;SDS011;50277;52.064;4.492;2023-06-14T04:40:23;8.23;;;3.10;;
64029;SDS011;50277;52.064;4.492;2023-06-14T04:42:49;7.60;;;3.33;;
64029;SDS011;50277;52.064;4.492;2023-06-14T04:45:15;8.05;;;3.03;;
64029;SDS011;50277;52.064;4.492;2023-06-14T04:47:41;8.93;;;3.28;;
64029;SDS011;50277;52.064;4.492;2023-06-14T04:50:07;6.18;;;3.30;;
64029;SDS011;50277;52.064;4.492;2023-06-14T04:52:33;10.77;;;3.10;;
64029;SDS011;50277;52.064;4.492;2023-06-14T04:54:58;5.00;;;3.20;;
64029;SDS011;50277;52.064;4.492;2023-06-14T04:57:24;8.27;;;3.38;;
64029;SDS011;50277;52.064;4.492;2023-06-14T04:59:50;4.63;;;2.90;;
64029;SDS011;50277;52.064;4.492;2023-06-14T05:02:19;9.68;;;2.72;;
64029;SDS011;50277;52.064;4.492;2023-06-14T05:04:45;6.35;;;2.90;;
64029;SDS011;50277;52.064;4.492;2023-06-14T05:07:12;8.13;;;2.88;;
64029;SDS011;50277;52.064;4.492;2023-06-14T05:09:39;8.30;;;2.90;;
64029;SDS011;50277;52.064;4.492;2023-06-14T05:12:04;17.20;;;3.05;;
64029;SDS011;50277;52.064;4.492;2023-06-14T05:14:33;8.32;;;3.60;;
64029;SDS011;50277;52.064;4.492;2023-06-14T05:19:27;8.60;;;3.03;;
64029;SDS011;50277;52.064;4.492;2023-06-14T05:21:53;3.60;;;2.97;;
64029;SDS011;50277;52.064;4.492;2023-06-14T05:24:18;4.88;;;2.55;;
64029;SDS011;50277;52.064;4.492;2023-06-14T05:26:44;8.55;;;2.90;;
64029;SDS011;50277;52.064;4.492;2023-06-14T05:29:10;4.05;;;3.10;;
64029;SDS011;50277;52.064;4.492;2023-06-14T05:31:35;4.68;;;3.20;;
64029;SDS011;50277;52.064;4.492;2023-06-14T05:34:02;6.57;;;3.00;;
64029;SDS011;50277;52.064;4.492;2023-06-14T05:36:27;15.95;;;3.42;;
64029;SDS011;50277;52.064;4.492;2023-06-14T05:38:53;10.38;;;3.30;;
64029;SDS011;50277;52.064;4.492;2023-06-14T05:41:28;4.35;;;2.75;;
64029;SDS011;50277;52.064;4.492;2023-06-14T05:43:54;7.85;;;2.90;;
64029;SDS011;50277;52.064;4.492;2023-06-14T05:46:20;6.50;;;2.75;;
64029;SDS011;50277;52.064;4.492;2023-06-14T05:48:49;6.10;;;2.83;;
64029;SDS011;50277;52.064;4.492;2023-06-14T05:51:14;8.27;;;3.00;;
64029;SDS011;50277;52.064;4.492;2023-06-14T05:53:44;4.18;;;3.17;;
64029;SDS011;50277;52.064;4.492;2023-06-14T05:56:11;5.95;;;3.17;;
64029;SDS011;50277;52.064;4.492;2023-06-14T05:58:36;5.85;;;2.80;;
64029;SDS011;50277;52.064;4.492;2023-06-14T06:01:02;10.05;;;3.08;;
64029;SDS011;50277;52.064;4.492;2023-06-14T06:03:27;7.80;;;2.90;;
64029;SDS011;50277;52.064;4.492;2023-06-14T06:05:54;3.80;;;2.75;;
64029;SDS011;50277;52.064;4.492;2023-06-14T06:08:19;9.82;;;2.95;;
64029;SDS011;50277;52.064;4.492;2023-06-14T06:10:45;6.38;;;2.90;;
64029;SDS011;50277;52.064;4.492;2023-06-14T06:13:11;7.78;;;2.92;;
64029;SDS011;50277;52.064;4.492;2023-06-14T06:15:36;10.95;;;3.33;;
64029;SDS011;50277;52.064;4.492;2023-06-14T06:18:02;11.50;;;2.85;;
64029;SDS011;50277;52.064;4.492;2023-06-14T06:20:27;8.80;;;2.70;;
64029;SDS011;50277;52.064;4.492;2023-06-14T06:22:55;13.20;;;3.35;;
64029;SDS011;50277;52.064;4.492;2023-06-14T06:25:21;6.82;;;3.08;;
64029;SDS011;50277;52.064;4.492;2023-06-14T06:27:47;9.80;;;3.35;;
64029;SDS011;50277;52.064;4.492;2023-06-14T06:30:12;5.10;;;3.08;;
64029;SDS011;50277;52.064;4.492;2023-06-14T06:32:38;10.07;;;3.45;;
64029;SDS011;50277;52.064;4.492;2023-06-14T06:35:03;4.88;;;3.15;;
64029;SDS011;50277;52.064;4.492;2023-06-14T06:37:31;5.97;;;3.00;;
64029;SDS011;50277;52.064;4.492;2023-06-14T06:39:56;8.35;;;2.80;;
64029;SDS011;50277;52.064;4.492;2023-06-14T06:42:21;4.80;;;3.17;;
64029;SDS011;50277;52.064;4.492;2023-06-14T06:44:47;8.98;;;3.60;;
64029;SDS011;50277;52.064;4.492;2023-06-14T06:47:12;8.65;;;3.63;;
64029;SDS011;50277;52.064;4.492;2023-06-14T06:49:37;5.53;;;2.75;;
64029;SDS011;50277;52.064;4.492;2023-06-14T06:52:06;6.38;;;3.17;;
64029;SDS011;50277;52.064;4.492;2023-06-14T06:54:32;11.07;;;3.13;;
64029;SDS011;50277;52.064;4.492;2023-06-14T06:56:58;6.75;;;3.03;;
64029;SDS011;50277;52.064;4.492;2023-06-14T06:59:24;9.40;;;3.05;;
64029;SDS011;50277;52.064;4.492;2023-06-14T07:01:49;6.70;;;3.33;;
64029;SDS011;50277;52.064;4.492;2023-06-14T07:04:15;4.57;;;3.30;;
64029;SDS011;50277;52.064;4.492;2023-06-14T07:06:41;8.68;;;3.35;;
64029;SDS011;50277;52.064;4.492;2023-06-14T07:09:07;5.40;;;3.30;;
64029;SDS011;50277;52.064;4.492;2023-06-14T07:11:37;6.50;;;3.28;;
64029;SDS011;50277;52.064;4.492;2023-06-14T07:14:03;6.38;;;2.97;;
64029;SDS011;50277;52.064;4.492;2023-06-14T07:16:28;9.07;;;3.40;;
64029;SDS011;50277;52.064;4.492;2023-06-14T07:18:54;6.57;;;3.60;;
64029;SDS011;50277;52.064;4.492;2023-06-14T07:21:20;6.35;;;3.47;;
64029;SDS011;50277;52.064;4.492;2023-06-14T07:23:45;9.70;;;3.30;;
64029;SDS011;50277;52.064;4.492;2023-06-14T07:26:11;11.35;;;3.42;;
64029;SDS011;50277;52.064;4.492;2023-06-14T07:28:36;5.88;;;3.30;;
64029;SDS011;50277;52.064;4.492;2023-06-14T07:31:01;9.73;;;3.78;;
64029;SDS011;50277;52.064;4.492;2023-06-14T07:33:27;8.82;;;3.53;;
64029;SDS011;50277;52.064;4.492;2023-06-14T07:35:53;4.35;;;3.40;;
64029;SDS011;50277;52.064;4.492;2023-06-14T07:38:18;9.10;;;3.53;;
64029;SDS011;50277;52.064;4.492;2023-06-14T07:40:43;6.03;;;3.53;;
64029;SDS011;50277;52.064;4.492;2023-06-14T07:43:09;11.23;;;3.50;;
64029;SDS011;50277;52.064;4.492;2023-06-14T07:45:34;9.65;;;3.40;;
64029;SDS011;50277;52.064;4.492;2023-06-14T07:47:59;7.53;;;3.80;;
64029;SDS011;50277;52.064;4.492;2023-06-14T07:50:25;10.85;;;4.45;;
64029;SDS011;50277;52.064;4.492;2023-06-14T07:52:50;4.63;;;3.20;;
64029;SDS011;50277;52.064;4.492;2023-06-14T07:55:16;10.52;;;3.25;;
64029;SDS011;50277;52.064;4.492;2023-06-14T07:57:41;7.50;;;3.47;;
64029;SDS011;50277;52.064;4.492;2023-06-14T08:00:08;10.02;;;3.58;;
64029;SDS011;50277;52.064;4.492;2023-06-14T08:02:36;8.90;;;3.78;;
64029;SDS011;50277;52.064;4.492;2023-06-14T08:05:02;7.20;;;3.45;;
64029;SDS011;50277;52.064;4.492;2023-06-14T08:07:27;11.40;;;3.40;;
64029;SDS011;50277;52.064;4.492;2023-06-14T08:09:52;7.43;;;3.47;;
64029;SDS011;50277;52.064;4.492;2023-06-14T08:12:18;8.25;;;4.13;;
64029;SDS011;50277;52.064;4.492;2023-06-14T08:14:43;7.20;;;3.50;;
64029;SDS011;50277;52.064;4.492;2023-06-14T08:17:09;12.82;;;3.72;;
64029;SDS011;50277;52.064;4.492;2023-06-14T08:19:34;3.90;;;3.50;;
64029;SDS011;50277;52.064;4.492;2023-06-14T08:22:01;10.25;;;3.60;;
64029;SDS011;50277;52.064;4.492;2023-06-14T08:24:27;5.97;;;3.58;;
64029;SDS011;50277;52.064;4.492;2023-06-14T08:26:53;7.03;;;3.75;;
64029;SDS011;50277;52.064;4.492;2023-06-14T08:29:19;6.22;;;3.63;;
64029;SDS011;50277;52.064;4.492;2023-06-14T08:31:44;7.75;;;3.97;;
64029;SDS011;50277;52.064;4.492;2023-06-14T08:34:10;8.13;;;3.90;;
64029;SDS011;50277;52.064;4.492;2023-06-14T08:36:35;7.85;;;3.78;;
64029;SDS011;50277;52.064;4.492;2023-06-14T08:39:01;7.45;;;3.65;;
64029;SDS011;50277;52.064;4.492;2023-06-14T08:41:27;9.88;;;3.90;;
64029;SDS011;50277;52.064;4.492;2023-06-14T08:43:54;10.45;;;3.63;;
64029;SDS011;50277;52.064;4.492;2023-06-14T08:46:20;7.60;;;3.50;;
64029;SDS011;50277;52.064;4.492;2023-06-14T08:48:48;5.68;;;3.65;;
64029;SDS011;50277;52.064;4.492;2023-06-14T08:51:15;6.43;;;3.70;;
64029;SDS011;50277;52.064;4.492;2023-06-14T08:53:49;8.75;;;3.65;;
64029;SDS011;50277;52.064;4.492;2023-06-14T08:56:17;5.60;;;3.42;;
64029;SDS011;50277;52.064;4.492;2023-06-14T08:58:45;3.50;;;3.20;;
64029;SDS011;50277;52.064;4.492;2023-06-14T09:03:40;6.45;;;3.22;;
64029;SDS011;50277;52.064;4.492;2023-06-14T09:06:06;5.95;;;3.60;;
64029;SDS011;50277;52.064;4.492;2023-06-14T09:08:33;7.75;;;3.50;;
64029;SDS011;50277;52.064;4.492;2023-06-14T09:11:00;6.53;;;3.00;;
64029;SDS011;50277;52.064;4.492;2023-06-14T09:13:26;6.70;;;3.10;;
64029;SDS011;50277;52.064;4.492;2023-06-14T09:15:52;7.72;;;2.95;;
64029;SDS011;50277;52.064;4.492;2023-06-14T09:18:17;6.25;;;3.28;;
64029;SDS011;50277;52.064;4.492;2023-06-14T09:20:42;5.03;;;3.10;;
64029;SDS011;50277;52.064;4.492;2023-06-14T09:23:08;7.63;;;3.42;;
64029;SDS011;50277;52.064;4.492;2023-06-14T09:25:43;5.35;;;3.35;;
64029;SDS011;50277;52.064;4.492;2023-06-14T09:28:08;7.80;;;2.97;;
64029;SDS011;50277;52.064;4.492;2023-06-14T09:30:35;10.30;;;3.53;;
64029;SDS011;50277;52.064;4.492;2023-06-14T09:33:01;6.68;;;3.17;;
64029;SDS011;50277;52.064;4.492;2023-06-14T09:35:27;7.00;;;3.28;;
64029;SDS011;50277;52.064;4.492;2023-06-14T09:37:54;6.55;;;3.17;;
64029;SDS011;50277;52.064;4.492;2023-06-14T09:40:20;5.88;;;3.22;;
64029;SDS011;50277;52.064;4.492;2023-06-14T09:42:46;7.85;;;2.83;;
64029;SDS011;50277;52.064;4.492;2023-06-14T09:45:12;14.50;;;2.95;;
64029;SDS011;50277;52.064;4.492;2023-06-14T09:47:39;5.40;;;2.80;;
64029;SDS011;50277;52.064;4.492;2023-06-14T09:50:05;3.28;;;2.97;;
64029;SDS011;50277;52.064;4.492;2023-06-14T09:52:31;3.80;;;3.15;;
64029;SDS011;50277;52.064;4.492;2023-06-14T09:54:56;4.93;;;3.05;;
64029;SDS011;50277;52.064;4.492;2023-06-14T09:57:24;3.40;;;2.80;;
64029;SDS011;50277;52.064;4.492;2023-06-14T09:59:56;3.65;;;2.97;;
64029;SDS011;50277;52.064;4.492;2023-06-14T10:02:26;8.50;;;3.15;;
64029;SDS011;50277;52.064;4.492;2023-06-14T10:04:58;8.88;;;2.80;;
64029;SDS011;50277;52.064;4.492;2023-06-14T10:07:30;5.22;;;2.83;;
64029;SDS011;50277;52.064;4.492;2023-06-14T10:10:00;3.75;;;2.60;;
64029;SDS011;50277;52.064;4.492;2023-06-14T10:12:26;6.75;;;2.55;;
64029;SDS011;50277;52.064;4.492;2023-06-14T10:14:52;5.60;;;2.38;;
64029;SDS011;50277;52.064;4.492;2023-06-14T10:17:25;5.13;;;2.88;;
64029;SDS011;50277;52.064;4.492;2023-06-14T10:20:06;7.53;;;2.50;;
64029;SDS011;50277;52.064;4.492;2023-06-14T10:22:58;3.88;;;2.50;;
64029;SDS011;50277;52.064;4.492;2023-06-14T10:25:29;6.88;;;2.65;;
64029;SDS011;50277;52.064;4.492;2023-06-14T10:31:01;8.32;;;2.35;;
64029;SDS011;50277;52.064;4.492;2023-06-14T10:33:31;2.50;;;2.30;;
64029;SDS011;50277;52.064;4.492;2023-06-14T10:36:07;6.40;;;2.17;;
64029;SDS011;50277;52.064;4.492;2023-06-14T10:38:33;3.63;;;2.10;;
64029;SDS011;50277;52.064;4.492;2023-06-14T10:41:00;4.57;;;2.17;;
64029;SDS011;50277;52.064;4.492;2023-06-14T10:43:25;6.82;;;2.60;;
64029;SDS011;50277;52.064;4.492;2023-06-14T10:48:48;3.17;;;2.30;;
64029;SDS011;50277;52.064;4.492;2023-06-14T10:51:20;8.32;;;2.83;;
64029;SDS011;50277;52.064;4.492;2023-06-14T10:53:46;6.05;;;2.25;;
64029;SDS011;50277;52.064;4.492;2023-06-14T10:56:22;4.37;;;2.37;;
64029;SDS011;50277;52.064;4.492;2023-06-14T10:58:52;2.35;;;2.15;;
64029;SDS011;50277;52.064;4.492;2023-06-14T11:01:23;7.53;;;2.58;;
64029;SDS011;50277;52.064;4.492;2023-06-14T11:04:10;3.20;;;2.25;;
64029;SDS011;50277;52.064;4.492;2023-06-14T11:06:45;3.17;;;2.05;;
64029;SDS011;50277;52.064;4.492;2023-06-14T11:11:44;5.07;;;2.20;;
64029;SDS011;50277;52.064;4.492;2023-06-14T11:14:10;4.70;;;2.22;;
64029;SDS011;50277;52.064;4.492;2023-06-14T11:16:36;3.50;;;2.30;;
64029;SDS011;50277;52.064;4.492;2023-06-14T11:19:01;3.38;;;2.13;;
64029;SDS011;50277;52.064;4.492;2023-06-14T11:21:31;3.38;;;2.00;;
64029;SDS011;50277;52.064;4.492;2023-06-14T11:23:58;2.17;;;2.00;;
64029;SDS011;50277;52.064;4.492;2023-06-14T11:26:27;5.40;;;2.20;;
64029;SDS011;50277;52.064;4.492;2023-06-14T11:28:57;2.35;;;1.80;;
64029;SDS011;50277;52.064;4.492;2023-06-14T11:31:24;7.40;;;2.08;;
64029;SDS011;50277;52.064;4.492;2023-06-14T11:33:50;2.55;;;2.08;;
64029;SDS011;50277;52.064;4.492;2023-06-14T11:36:16;3.83;;;2.00;;
64029;SDS011;50277;52.064;4.492;2023-06-14T11:38:41;2.20;;;1.95;;
64029;SDS011;50277;52.064;4.492;2023-06-14T11:41:07;3.45;;;2.13;;
64029;SDS011;50277;52.064;4.492;2023-06-14T11:43:32;4.80;;;1.88;;
64029;SDS011;50277;52.064;4.492;2023-06-14T11:45:59;3.30;;;2.00;;
64029;SDS011;50277;52.064;4.492;2023-06-14T11:48:41;3.67;;;1.75;;
64029;SDS011;50277;52.064;4.492;2023-06-14T11:51:07;1.98;;;1.88;;
64029;SDS011;50277;52.064;4.492;2023-06-14T11:53:32;2.88;;;2.10;;
64029;SDS011;50277;52.064;4.492;2023-06-14T11:55:58;6.10;;;2.10;;
64029;SDS011;50277;52.064;4.492;2023-06-14T11:58:25;4.75;;;2.00;;
64029;SDS011;50277;52.064;4.492;2023-06-14T12:00:50;2.92;;;1.90;;
64029;SDS011;50277;52.064;4.492;2023-06-14T12:03:17;4.15;;;2.05;;
64029;SDS011;50277;52.064;4.492;2023-06-14T12:05:42;1.73;;;1.58;;
64029;SDS011;50277;52.064;4.492;2023-06-14T12:08:08;7.80;;;2.10;;
64029;SDS011;50277;52.064;4.492;2023-06-14T12:10:43;1.90;;;1.80;;
64029;SDS011;50277;52.064;4.492;2023-06-14T12:13:09;2.63;;;2.00;;
64029;SDS011;50277;52.064;4.492;2023-06-14T12:15:34;3.42;;;2.00;;
64029;SDS011;50277;52.064;4.492;2023-06-14T12:18:00;2.85;;;1.50;;
64029;SDS011;50277;52.064;4.492;2023-06-14T12:20:29;2.95;;;1.95;;
64029;SDS011;50277;52.064;4.492;2023-06-14T12:22:56;3.42;;;1.90;;
64029;SDS011;50277;52.064;4.492;2023-06-14T12:25:32;3.25;;;1.60;;
64029;SDS011;50277;52.064;4.492;2023-06-14T12:28:03;4.32;;;1.83;;
64029;SDS011;50277;52.064;4.492;2023-06-14T12:30:30;3.35;;;1.90;;
64029;SDS011;50277;52.064;4.492;2023-06-14T12:32:55;2.22;;;1.88;;
64029;SDS011;50277;52.064;4.492;2023-06-14T12:35:21;4.57;;;1.90;;
64029;SDS011;50277;52.064;4.492;2023-06-14T12:37:46;4.30;;;2.20;;
64029;SDS011;50277;52.064;4.492;2023-06-14T12:40:13;2.85;;;1.63;;
64029;SDS011;50277;52.064;4.492;2023-06-14T12:42:39;2.15;;;1.70;;
64029;SDS011;50277;52.064;4.492;2023-06-14T12:45:05;2.17;;;1.92;;
64029;SDS011;50277;52.064;4.492;2023-06-14T12:47:31;6.70;;;1.90;;
64029;SDS011;50277;52.064;4.492;2023-06-14T12:49:56;2.15;;;1.98;;
64029;SDS011;50277;52.064;4.492;2023-06-14T12:52:21;4.97;;;2.05;;
64029;SDS011;50277;52.064;4.492;2023-06-14T12:54:47;10.18;;;1.75;;
64029;SDS011;50277;52.064;4.492;2023-06-14T12:57:12;6.75;;;2.15;;
64029;SDS011;50277;52.064;4.492;2023-06-14T12:59:37;2.40;;;1.90;;
64029;SDS011;50277;52.064;4.492;2023-06-14T13:02:16;5.03;;;1.80;;
64029;SDS011;50277;52.064;4.492;2023-06-14T13:04:42;3.17;;;1.70;;
64029;SDS011;50277;52.064;4.492;2023-06-14T13:07:08;4.97;;;2.28;;
64029;SDS011;50277;52.064;4.492;2023-06-14T13:09:33;2.53;;;1.83;;
64029;SDS011;50277;52.064;4.492;2023-06-14T13:11:59;5.53;;;2.55;;
64029;SDS011;50277;52.064;4.492;2023-06-14T13:14:24;2.63;;;2.42;;
64029;SDS011;50277;52.064;4.492;2023-06-14T13:16:50;3.92;;;1.95;;
64029;SDS011;50277;52.064;4.492;2023-06-14T13:19:15;1.88;;;1.77;;
64029;SDS011;50277;52.064;4.492;2023-06-14T13:21:40;3.65;;;1.90;;
64029;SDS011;50277;52.064;4.492;2023-06-14T13:24:06;4.18;;;1.83;;
64029;SDS011;50277;52.064;4.492;2023-06-14T13:26:32;2.22;;;2.00;;
64029;SDS011;50277;52.064;4.492;2023-06-14T13:28:58;3.70;;;1.98;;
64029;SDS011;50277;52.064;4.492;2023-06-14T13:31:23;3.00;;;1.80;;
64029;SDS011;50277;52.064;4.492;2023-06-14T13:33:48;3.75;;;2.50;;
64029;SDS011;50277;52.064;4.492;2023-06-14T13:36:14;2.90;;;2.10;;
64029;SDS011;50277;52.064;4.492;2023-06-14T13:38:39;3.22;;;1.65;;
64029;SDS011;50277;52.064;4.492;2023-06-14T13:41:05;3.40;;;1.80;;
64029;SDS011;50277;52.064;4.492;2023-06-14T13:43:30;3.72;;;1.90;;
64029;SDS011;50277;52.064;4.492;2023-06-14T13:45:55;4.03;;;2.05;;
64029;SDS011;50277;52.064;4.492;2023-06-14T13:48:21;4.00;;;1.75;;
64029;SDS011;50277;52.064;4.492;2023-06-14T13:50:47;4.13;;;2.10;;
64029;SDS011;50277;52.064;4.492;2023-06-14T13:53:12;3.35;;;2.00;;
64029;SDS011;50277;52.064;4.492;2023-06-14T13:55:39;3.78;;;1.65;;
64029;SDS011;50277;52.064;4.492;2023-06-14T13:58:04;4.55;;;2.05;;
64029;SDS011;50277;52.064;4.492;2023-06-14T14:00:29;2.08;;;1.90;;
64029;SDS011;50277;52.064;4.492;2023-06-14T14:02:56;4.57;;;2.00;;
64029;SDS011;50277;52.064;4.492;2023-06-14T14:05:22;1.85;;;1.75;;
64029;SDS011;50277;52.064;4.492;2023-06-14T14:07:53;4.32;;;1.92;;
64029;SDS011;50277;52.064;4.492;2023-06-14T14:10:19;3.95;;;1.85;;
64029;SDS011;50277;52.064;4.492;2023-06-14T14:12:45;4.72;;;2.08;;
64029;SDS011;50277;52.064;4.492;2023-06-14T14:15:11;5.57;;;1.90;;
64029;SDS011;50277;52.064;4.492;2023-06-14T14:17:39;5.43;;;1.52;;
64029;SDS011;50277;52.064;4.492;2023-06-14T14:20:05;5.43;;;2.10;;
64029;SDS011;50277;52.064;4.492;2023-06-14T14:22:31;2.00;;;1.80;;
64029;SDS011;50277;52.064;4.492;2023-06-14T14:24:57;8.82;;;1.77;;
64029;SDS011;50277;52.064;4.492;2023-06-14T14:27:22;2.83;;;1.80;;
64029;SDS011;50277;52.064;4.492;2023-06-14T14:29:48;5.90;;;2.08;;
64029;SDS011;50277;52.064;4.492;2023-06-14T14:32:13;2.00;;;1.80;;
64029;SDS011;50277;52.064;4.492;2023-06-14T14:34:39;5.93;;;2.05;;
64029;SDS011;50277;52.064;4.492;2023-06-14T14:37:04;2.13;;;1.92;;
64029;SDS011;50277;52.064;4.492;2023-06-14T14:39:30;2.30;;;2.00;;
64029;SDS011;50277;52.064;4.492;2023-06-14T14:41:56;3.22;;;2.00;;
64029;SDS011;50277;52.064;4.492;2023-06-14T14:44:21;6.05;;;1.80;;
64029;SDS011;50277;52.064;4.492;2023-06-14T14:46:46;3.53;;;1.88;;
64029;SDS011;50277;52.064;4.492;2023-06-14T14:49:12;1.85;;;1.75;;
64029;SDS011;50277;52.064;4.492;2023-06-14T14:51:37;3.08;;;1.90;;
64029;SDS011;50277;52.064;4.492;2023-06-14T14:54:03;3.78;;;2.00;;
64029;SDS011;50277;52.064;4.492;2023-06-14T14:56:29;4.22;;;1.55;;
64029;SDS011;50277;52.064;4.492;2023-06-14T14:58:54;4.32;;;1.77;;
64029;SDS011;50277;52.064;4.492;2023-06-14T15:01:20;5.93;;;2.00;;
64029;SDS011;50277;52.064;4.492;2023-06-14T15:03:45;1.95;;;1.80;;